Lauderdale, Minnesota
Current Conditions -  °F | °C
As of 5:53 PM on Saturday 22 Nov 2014 (Local Time) from KSTP Reporting Station
Haze Haze  
Wind Chill: 29°   Ceiling: 600
Heat Index: 35°   Visibility: 6mi
Dew Point: 34°   Wind: 7mph
Humidity: 96%   Direction: 140°SE
Pressure: 29.64"   Gusts: NA
Location:  45.0123°N, 93.1559°W
Report Text: KSTP 222353Z 14006KT 6SM BR OVC006 02/01 A2964 RMK AO2 SLP041 T00170011 10017 20017 58017
Loading
Personal Weather Stations






























Interactive Weather Map New forecast layout! Learn more

10-Day Weather Forecast

Advertisements
Track Severe Weather on mobile